createdAt,value
2023-05-14T00:01:41.180Z,12.01
2023-05-14T00:06:46.271Z,11.99
2023-05-14T00:11:48.113Z,12.00
2023-05-14T00:16:50.038Z,11.97
2023-05-14T00:21:51.698Z,11.91
2023-05-14T00:26:53.262Z,11.86
2023-05-14T00:31:55.073Z,11.82
2023-05-14T00:36:56.676Z,11.81
2023-05-14T00:41:58.369Z,11.80
2023-05-14T00:47:00.424Z,11.75
2023-05-14T00:52:02.349Z,11.67
2023-05-14T00:57:05.053Z,11.62
2023-05-14T01:02:06.790Z,11.66
2023-05-14T01:07:27.770Z,11.65
2023-05-14T01:12:35.583Z,11.66
2023-05-14T01:17:46.659Z,11.66
2023-05-14T01:22:48.470Z,11.67
2023-05-14T01:27:55.607Z,11.69
2023-05-14T01:32:58.939Z,11.69
2023-05-14T01:38:01.440Z,11.71
2023-05-14T01:43:04.105Z,11.73
2023-05-14T01:48:05.829Z,11.75
2023-05-14T01:53:07.661Z,11.76
2023-05-14T01:58:09.332Z,11.71
2023-05-14T02:03:11.067Z,11.68
2023-05-14T02:08:12.837Z,11.68
2023-05-14T02:13:15.357Z,11.67
2023-05-14T02:18:16.943Z,11.65
2023-05-14T02:23:20.640Z,11.63
2023-05-14T02:28:27.575Z,11.62
2023-05-14T02:33:29.953Z,11.58
2023-05-14T02:38:36.233Z,11.58
2023-05-14T02:43:40.163Z,11.57
2023-05-14T02:48:42.755Z,11.57
2023-05-14T02:53:44.535Z,11.55
2023-05-14T02:58:46.105Z,11.54
2023-05-14T03:03:47.796Z,11.50
2023-05-14T03:08:49.968Z,11.49
2023-05-14T03:13:51.641Z,11.47
2023-05-14T03:18:53.566Z,11.48
2023-05-14T03:23:55.188Z,11.50
2023-05-14T03:28:56.757Z,11.55
2023-05-14T03:33:58.374Z,11.58
2023-05-14T03:39:00.148Z,11.63
2023-05-14T03:44:01.915Z,11.70
2023-05-14T03:49:03.636Z,11.72
2023-05-14T03:54:05.647Z,11.80
2023-05-14T03:59:07.328Z,11.83
2023-05-14T04:04:09.133Z,11.85
2023-05-14T04:09:10.885Z,11.84
2023-05-14T04:14:12.640Z,11.81
2023-05-14T04:19:14.943Z,11.79
2023-05-14T04:24:17.269Z,11.87
2023-05-14T04:29:19.202Z,12.09
2023-05-14T04:34:21.074Z,12.32
2023-05-14T04:39:22.729Z,12.56
2023-05-14T04:44:25.575Z,12.55
2023-05-14T04:49:27.426Z,12.43
2023-05-14T04:54:29.851Z,12.38
2023-05-14T04:59:31.684Z,12.41
2023-05-14T05:04:33.359Z,12.50
2023-05-14T05:09:35.042Z,12.69
2023-05-14T05:14:36.719Z,13.00
2023-05-14T05:19:43.884Z,13.31
2023-05-14T05:24:47.068Z,13.62
2023-05-14T05:29:50.340Z,13.82
2023-05-14T05:34:52.038Z,14.02
2023-05-14T05:39:53.502Z,14.30
2023-05-14T05:44:55.587Z,14.59
2023-05-14T05:49:57.233Z,14.85
2023-05-14T05:54:59.116Z,15.04
2023-05-14T06:00:00.792Z,15.27
2023-05-14T06:05:02.378Z,15.47
2023-05-14T06:10:04.714Z,15.50
2023-05-14T06:15:07.355Z,15.69
2023-05-14T06:20:09.735Z,15.94
2023-05-14T06:25:11.829Z,16.20
2023-05-14T06:30:14.185Z,16.41
2023-05-14T06:35:16.085Z,16.68
2023-05-14T06:40:18.785Z,16.93
2023-05-14T06:45:21.485Z,17.23
2023-05-14T06:50:23.615Z,17.55
2023-05-14T06:55:25.645Z,17.79
2023-05-14T07:00:28.237Z,18.14
2023-05-14T07:05:30.735Z,18.29
2023-05-14T07:10:34.101Z,18.25
2023-05-14T07:15:36.136Z,18.26
2023-05-14T07:20:37.909Z,18.36
2023-05-14T07:25:39.579Z,18.54
2023-05-14T07:30:41.256Z,18.85
2023-05-14T07:35:49.788Z,19.05
2023-05-14T07:40:51.562Z,19.32
2023-05-14T07:45:53.236Z,19.53
2023-05-14T07:50:55.009Z,19.74
2023-05-14T07:55:56.800Z,19.94
2023-05-14T08:00:58.570Z,20.05
2023-05-14T08:06:00.229Z,20.17
2023-05-14T08:11:03.373Z,20.30
2023-05-14T08:16:05.733Z,20.32
2023-05-14T08:21:07.386Z,20.28
2023-05-14T08:26:09.296Z,20.37
2023-05-14T08:31:10.992Z,20.66
2023-05-14T08:36:12.944Z,20.89
2023-05-14T08:41:15.335Z,21.02
2023-05-14T08:46:17.416Z,21.27
2023-05-14T08:51:19.091Z,21.44
2023-05-14T08:56:20.865Z,21.65
2023-05-14T09:01:22.974Z,21.90
2023-05-14T09:06:24.824Z,22.07
2023-05-14T09:11:26.696Z,21.97
2023-05-14T09:16:28.541Z,21.88
2023-05-14T09:21:32.823Z,21.93
2023-05-14T09:26:35.456Z,21.98
2023-05-14T09:31:37.316Z,22.18
2023-05-14T09:36:38.928Z,22.41
2023-05-14T09:41:40.635Z,22.60
2023-05-14T09:46:42.643Z,22.75
2023-05-14T09:51:44.585Z,22.91
2023-05-14T09:56:46.288Z,23.20
2023-05-14T10:01:47.939Z,23.55
2023-05-14T10:06:50.660Z,23.94
2023-05-14T10:11:53.647Z,24.31
2023-05-14T10:16:56.222Z,24.69
2023-05-14T10:22:02.682Z,24.85
2023-05-14T10:27:04.997Z,25.09
2023-05-14T10:32:09.998Z,24.84
2023-05-14T10:37:21.886Z,24.67
2023-05-14T10:42:37.169Z,24.43
2023-05-14T10:47:40.102Z,24.31
2023-05-14T10:52:43.022Z,24.39
2023-05-14T10:57:45.688Z,24.19
2023-05-14T11:02:47.483Z,24.12
2023-05-14T11:07:49.837Z,24.33
2023-05-14T11:12:51.979Z,24.36
2023-05-14T11:17:53.905Z,24.21
2023-05-14T11:22:55.781Z,23.98
2023-05-14T11:27:57.457Z,23.70
2023-05-14T11:33:01.149Z,23.55
2023-05-14T11:38:03.743Z,23.84
2023-05-14T11:43:05.554Z,24.49
2023-05-14T11:48:13.351Z,25.05
2023-05-14T11:53:35.539Z,25.57
2023-05-14T11:58:37.417Z,26.00
2023-05-14T12:03:42.117Z,26.32
2023-05-14T12:08:43.946Z,26.72
2023-05-14T12:13:45.691Z,27.12
2023-05-14T12:18:47.384Z,27.60
2023-05-14T12:23:48.994Z,27.98
2023-05-14T12:28:50.721Z,28.41
2023-05-14T12:33:52.590Z,28.90
2023-05-14T12:38:59.235Z,29.16
2023-05-14T12:44:01.075Z,28.00
2023-05-14T12:49:02.951Z,27.01
2023-05-14T12:54:04.653Z,26.45
2023-05-14T12:59:06.399Z,26.40
2023-05-14T13:04:10.388Z,26.22
2023-05-14T13:09:12.100Z,25.88
2023-05-14T13:14:13.977Z,25.72
2023-05-14T13:19:16.012Z,25.76
2023-05-14T13:24:18.047Z,25.74
2023-05-14T13:29:22.168Z,25.62
2023-05-14T13:34:25.982Z,25.41
2023-05-14T13:39:28.004Z,25.19
2023-05-14T13:44:29.846Z,24.91
2023-05-14T13:49:32.764Z,24.64
2023-05-14T13:54:34.523Z,24.48
2023-05-14T13:59:36.197Z,24.34
2023-05-14T14:04:37.901Z,24.21
2023-05-14T14:09:39.623Z,23.94
2023-05-14T14:14:41.424Z,23.74
2023-05-14T14:19:43.075Z,23.56
2023-05-14T14:24:45.003Z,23.38
2023-05-14T14:29:46.751Z,23.31
2023-05-14T14:34:48.527Z,23.20
2023-05-14T14:39:50.224Z,23.02
2023-05-14T14:44:51.868Z,22.95
2023-05-14T14:49:53.557Z,22.76
2023-05-14T14:54:55.538Z,22.59
2023-05-14T14:59:57.130Z,22.56
2023-05-14T15:04:58.894Z,22.47
2023-05-14T15:10:00.648Z,22.37
2023-05-14T15:15:02.337Z,22.37
2023-05-14T15:20:04.622Z,22.27
2023-05-14T15:25:06.901Z,22.15
2023-05-14T15:30:09.318Z,22.07
2023-05-14T15:35:11.168Z,22.04
2023-05-14T15:40:13.059Z,21.94
2023-05-14T15:45:14.766Z,21.80
2023-05-14T15:50:16.685Z,21.65
2023-05-14T15:55:18.482Z,21.49
2023-05-14T16:00:20.580Z,21.40
2023-05-14T16:05:24.565Z,21.29
2023-05-14T16:10:26.561Z,21.24
2023-05-14T16:15:28.764Z,21.20
2023-05-14T16:20:30.737Z,21.16
2023-05-14T16:25:32.760Z,21.08
2023-05-14T16:30:34.472Z,20.95
2023-05-14T16:35:36.178Z,20.82
2023-05-14T16:40:37.825Z,20.74
2023-05-14T16:45:39.480Z,20.65
2023-05-14T16:50:41.207Z,20.57
2023-05-14T16:55:42.831Z,20.49
2023-05-14T17:00:44.641Z,20.42
2023-05-14T17:05:46.389Z,20.32
2023-05-14T17:10:48.279Z,20.26
2023-05-14T17:15:50.322Z,20.22
2023-05-14T17:20:52.138Z,20.12
2023-05-14T17:25:53.910Z,19.99
2023-05-14T17:30:56.513Z,19.90
2023-05-14T17:35:59.478Z,19.79
2023-05-14T17:41:02.078Z,19.66
2023-05-14T17:46:04.499Z,19.62
2023-05-14T17:51:06.100Z,19.60
2023-05-14T17:56:07.954Z,19.61
2023-05-14T18:01:09.845Z,19.64
2023-05-14T18:06:11.744Z,19.66
2023-05-14T18:11:13.638Z,19.59
2023-05-14T18:16:16.752Z,19.48
2023-05-14T18:21:19.231Z,19.38
2023-05-14T18:26:21.187Z,19.27
2023-05-14T18:31:23.197Z,19.18
2023-05-14T18:36:25.246Z,19.14
2023-05-14T18:41:27.226Z,19.05
2023-05-14T18:46:29.866Z,18.90
2023-05-14T18:51:31.699Z,18.74
2023-05-14T18:56:33.781Z,18.57
2023-05-14T19:01:35.499Z,18.47
2023-05-14T19:06:37.226Z,18.40
2023-05-14T19:11:39.006Z,18.28
2023-05-14T19:16:41.090Z,18.22
2023-05-14T19:21:42.761Z,18.10
2023-05-14T19:26:44.475Z,18.06
2023-05-14T19:31:50.461Z,18.06
2023-05-14T19:36:55.056Z,18.08
2023-05-14T19:41:56.831Z,18.05
2023-05-14T19:46:58.528Z,17.98
2023-05-14T19:52:00.270Z,17.98
2023-05-14T19:57:01.945Z,17.93
2023-05-14T20:02:03.743Z,17.84
2023-05-14T20:07:05.700Z,17.82
2023-05-14T20:12:08.103Z,17.77
2023-05-14T20:17:10.207Z,17.70
2023-05-14T20:22:12.393Z,17.64
2023-05-14T20:27:14.746Z,17.60
2023-05-14T20:32:16.315Z,17.53
2023-05-14T20:37:18.107Z,17.48
2023-05-14T20:42:19.987Z,17.40
2023-05-14T20:47:24.969Z,17.32
2023-05-14T20:52:29.060Z,17.31
2023-05-14T20:57:32.181Z,17.25
2023-05-14T21:02:36.179Z,17.10
2023-05-14T21:07:38.184Z,16.96
2023-05-14T21:12:40.126Z,16.86
2023-05-14T21:17:44.609Z,16.79
2023-05-14T21:22:46.483Z,16.75
2023-05-14T21:27:48.251Z,16.64
2023-05-14T21:32:50.256Z,16.57
2023-05-14T21:37:53.538Z,16.54
2023-05-14T21:42:55.218Z,16.49
2023-05-14T21:47:56.994Z,16.34
2023-05-14T21:52:58.775Z,16.26
2023-05-14T21:58:00.522Z,16.20
2023-05-14T22:03:02.386Z,16.14
2023-05-14T22:08:04.914Z,16.10
2023-05-14T22:13:06.698Z,16.03
2023-05-14T22:18:08.491Z,16.01
2023-05-14T22:23:10.162Z,15.98
2023-05-14T22:28:11.921Z,15.94
2023-05-14T22:33:14.137Z,15.87
2023-05-14T22:38:15.974Z,15.81
2023-05-14T22:43:18.077Z,15.73
2023-05-14T22:48:20.042Z,15.63
2023-05-14T22:53:22.748Z,15.52
2023-05-14T22:58:25.643Z,15.40
2023-05-14T23:03:27.850Z,15.27
2023-05-14T23:08:29.908Z,15.22
2023-05-14T23:13:31.860Z,15.14
2023-05-14T23:18:34.635Z,15.04
2023-05-14T23:23:36.633Z,14.97
2023-05-14T23:28:38.431Z,14.91
2023-05-14T23:33:40.227Z,14.84
2023-05-14T23:38:41.996Z,14.80
2023-05-14T23:43:43.668Z,14.78
2023-05-14T23:48:46.369Z,14.68
2023-05-14T23:53:47.941Z,14.60
2023-05-14T23:58:49.546Z,14.55
